createdAt,value
2019-02-22T00:02:14.085Z,2.55
2019-02-22T00:04:44.613Z,2.60
2019-02-22T00:07:15.540Z,2.62
2019-02-22T00:09:49.441Z,3.02
2019-02-22T00:12:18.327Z,2.70
2019-02-22T00:14:48.977Z,2.95
2019-02-22T00:19:54.550Z,3.25
2019-02-22T00:22:24.920Z,3.35
2019-02-22T00:24:55.779Z,2.42
2019-02-22T00:27:26.411Z,2.92
2019-02-22T00:29:57.168Z,3.50
2019-02-22T00:32:27.715Z,4.00
2019-02-22T00:34:58.493Z,3.17
2019-02-22T00:37:29.365Z,3.33
2019-02-22T00:39:59.696Z,4.80
2019-02-22T00:42:30.321Z,4.45
2019-02-22T00:47:31.028Z,2.67
2019-02-22T00:52:33.456Z,1.82
2019-02-22T00:55:05.099Z,2.30
2019-02-22T00:57:35.475Z,2.72
2019-02-22T01:00:08.494Z,2.25
2019-02-22T01:02:38.807Z,3.00
2019-02-22T01:05:09.579Z,2.95
2019-02-22T01:07:40.229Z,2.22
2019-02-22T01:10:11.086Z,1.90
2019-02-22T01:12:41.839Z,2.22
2019-02-22T01:15:12.575Z,2.15
2019-02-22T01:17:43.141Z,2.00
2019-02-22T01:20:14.005Z,2.50
2019-02-22T01:22:44.752Z,2.52
2019-02-22T01:25:15.490Z,2.35
2019-02-22T01:27:46.039Z,2.70
2019-02-22T01:30:16.910Z,2.72
2019-02-22T01:32:47.665Z,2.98
2019-02-22T01:35:18.420Z,2.98
2019-02-22T01:37:49.070Z,2.40
2019-02-22T01:40:19.806Z,2.60
2019-02-22T01:42:50.583Z,2.80
2019-02-22T01:45:21.335Z,3.15
2019-02-22T01:47:51.981Z,2.90
2019-02-22T01:50:23.558Z,1.90
2019-02-22T01:52:54.821Z,2.47
2019-02-22T01:55:25.660Z,3.25
2019-02-22T01:57:56.328Z,3.08
2019-02-22T02:00:27.184Z,2.95
2019-02-22T02:02:57.940Z,2.87
2019-02-22T02:05:28.692Z,2.87
2019-02-22T02:07:59.344Z,2.72
2019-02-22T02:10:30.078Z,2.72
2019-02-22T02:13:00.955Z,2.83
2019-02-22T02:15:31.710Z,2.60
2019-02-22T02:18:02.373Z,2.30
2019-02-22T02:20:33.216Z,2.40
2019-02-22T02:23:03.969Z,1.80
2019-02-22T02:25:34.722Z,2.02
2019-02-22T02:28:05.585Z,1.80
2019-02-22T02:30:36.435Z,2.20
2019-02-22T02:33:07.070Z,2.05
2019-02-22T02:35:37.738Z,1.60
2019-02-22T02:38:08.603Z,1.70
2019-02-22T02:40:39.357Z,2.22
2019-02-22T02:43:10.102Z,2.17
2019-02-22T02:45:40.755Z,1.77
2019-02-22T02:48:11.507Z,3.30
2019-02-22T02:50:42.244Z,1.90
2019-02-22T02:53:13.937Z,1.55
2019-02-22T02:55:44.892Z,1.80
2019-02-22T02:58:15.547Z,1.15
2019-02-22T03:00:46.402Z,2.10
2019-02-22T03:03:17.258Z,1.12
2019-02-22T03:05:52.494Z,1.30
2019-02-22T03:08:24.787Z,1.65
2019-02-22T03:10:55.638Z,1.40
2019-02-22T03:13:26.565Z,1.52
2019-02-22T03:15:57.370Z,1.70
2019-02-22T03:18:28.120Z,1.62
2019-02-22T03:20:58.963Z,1.80
2019-02-22T03:23:29.630Z,1.52
2019-02-22T03:26:00.289Z,1.10
2019-02-22T03:28:30.934Z,1.62
2019-02-22T03:31:01.791Z,3.20
2019-02-22T03:33:32.445Z,2.45
2019-02-22T03:36:03.196Z,3.15
2019-02-22T03:38:33.848Z,1.75
2019-02-22T03:41:04.685Z,1.82
2019-02-22T03:43:35.455Z,1.85
2019-02-22T03:46:06.210Z,1.20
2019-02-22T03:48:36.861Z,1.92
2019-02-22T03:51:07.700Z,1.20
2019-02-22T03:53:41.133Z,1.20
2019-02-22T03:56:12.087Z,1.27
2019-02-22T03:58:42.851Z,1.40
2019-02-22T04:01:13.701Z,1.42
2019-02-22T04:03:44.559Z,0.98
2019-02-22T04:06:15.292Z,1.60
2019-02-22T04:08:45.961Z,1.30
2019-02-22T04:11:16.817Z,1.22
2019-02-22T04:13:47.573Z,1.80
2019-02-22T04:16:18.323Z,1.90
2019-02-22T04:18:49.082Z,1.85
2019-02-22T04:21:19.916Z,1.85
2019-02-22T04:23:50.588Z,1.32
2019-02-22T04:26:21.224Z,1.07
2019-02-22T04:28:53.506Z,1.90
2019-02-22T04:31:24.379Z,1.85
2019-02-22T04:33:55.135Z,1.50
2019-02-22T04:36:25.772Z,2.25
2019-02-22T04:38:56.541Z,2.02
2019-02-22T04:41:27.312Z,2.83
2019-02-22T04:43:57.946Z,2.27
2019-02-22T04:46:28.630Z,1.67
2019-02-22T04:48:59.232Z,2.65
2019-02-22T04:51:29.885Z,2.47
2019-02-22T04:54:01.683Z,1.95
2019-02-22T04:56:32.618Z,1.55
2019-02-22T04:59:03.397Z,2.27
2019-02-22T05:01:34.142Z,2.25
2019-02-22T05:06:34.426Z,2.27
2019-02-22T05:09:05.545Z,2.10
2019-02-22T05:11:35.933Z,1.98
2019-02-22T05:14:06.773Z,1.87
2019-02-22T05:16:37.424Z,1.70
2019-02-22T05:19:08.191Z,2.15
2019-02-22T05:21:38.725Z,1.98
2019-02-22T05:24:09.596Z,3.17
2019-02-22T05:26:40.435Z,2.30
2019-02-22T05:29:11.188Z,2.10
2019-02-22T05:31:41.866Z,3.02
2019-02-22T05:34:12.512Z,2.27
2019-02-22T05:36:44.250Z,1.87
2019-02-22T05:39:19.103Z,2.27
2019-02-22T05:41:47.110Z,2.20
2019-02-22T05:44:17.985Z,2.60
2019-02-22T05:46:59.697Z,3.10
2019-02-22T05:49:22.366Z,2.75
2019-02-22T05:51:52.988Z,3.02
2019-02-22T05:54:24.901Z,3.20
2019-02-22T05:56:55.946Z,3.52
2019-02-22T05:59:26.712Z,4.55
2019-02-22T06:01:57.454Z,3.98
2019-02-22T06:04:28.310Z,3.58
2019-02-22T06:06:59.047Z,4.00
2019-02-22T06:09:29.814Z,3.42
2019-02-22T06:12:00.469Z,3.17
2019-02-22T06:14:31.334Z,3.98
2019-02-22T06:17:13.953Z,3.35
2019-02-22T06:19:34.570Z,2.60
2019-02-22T06:22:05.224Z,3.25
2019-02-22T06:24:36.078Z,3.72
2019-02-22T06:27:06.729Z,5.03
2019-02-22T06:29:39.216Z,4.35
2019-02-22T06:32:09.865Z,5.45
2019-02-22T06:34:40.837Z,5.35
2019-02-22T06:37:11.589Z,5.40
2019-02-22T06:39:42.237Z,4.72
2019-02-22T06:42:12.991Z,5.15
2019-02-22T06:44:43.949Z,4.03
2019-02-22T06:49:44.599Z,3.17
2019-02-22T06:52:15.494Z,3.47
2019-02-22T06:54:47.048Z,2.72
2019-02-22T06:57:23.967Z,4.03
2019-02-22T06:59:54.609Z,2.45
2019-02-22T07:02:26.590Z,3.08
2019-02-22T07:05:07.877Z,3.08
2019-02-22T07:07:38.734Z,3.22
2019-02-22T07:10:10.782Z,2.60
2019-02-22T07:12:42.782Z,2.47
2019-02-22T07:15:13.331Z,2.30
2019-02-22T07:20:13.714Z,3.27
2019-02-22T07:22:44.467Z,3.33
2019-02-22T07:25:15.019Z,3.02
2019-02-22T07:27:45.891Z,3.80
2019-02-22T07:30:16.645Z,3.52
2019-02-22T07:32:47.436Z,2.35
2019-02-22T07:35:18.154Z,2.42
2019-02-22T07:37:49.008Z,2.67
2019-02-22T07:40:20.135Z,2.35
2019-02-22T07:42:50.821Z,2.30
2019-02-22T07:45:21.679Z,2.20
2019-02-22T07:47:52.433Z,2.62
2019-02-22T07:50:23.082Z,2.33
2019-02-22T07:52:53.939Z,2.08
2019-02-22T07:55:25.699Z,1.98
2019-02-22T07:57:56.689Z,1.67
2019-02-22T08:00:28.658Z,1.95
2019-02-22T08:02:59.408Z,1.77
2019-02-22T08:05:30.265Z,1.70
2019-02-22T08:08:01.123Z,1.85
2019-02-22T08:10:31.878Z,1.70
2019-02-22T08:13:02.526Z,2.00
2019-02-22T08:15:35.418Z,1.40
2019-02-22T08:18:05.772Z,1.82
2019-02-22T08:20:36.534Z,1.80
2019-02-22T08:23:07.183Z,2.40
2019-02-22T08:25:38.034Z,2.10
2019-02-22T08:28:08.792Z,2.45
2019-02-22T08:30:39.647Z,1.85
2019-02-22T08:33:10.499Z,1.55
2019-02-22T08:35:41.357Z,1.60
2019-02-22T08:38:12.097Z,1.10
2019-02-22T08:40:42.968Z,0.90
2019-02-22T08:43:13.822Z,1.40
2019-02-22T08:45:44.577Z,2.08
2019-02-22T08:48:15.310Z,1.25
2019-02-22T08:50:46.290Z,1.80
2019-02-22T08:53:17.025Z,1.60
2019-02-22T08:55:47.796Z,1.55
2019-02-22T08:58:18.857Z,2.00
2019-02-22T09:00:49.612Z,1.22
2019-02-22T09:03:20.243Z,1.25
2019-02-22T09:05:50.999Z,1.32
2019-02-22T09:08:21.871Z,1.47
2019-02-22T09:11:00.482Z,1.55
2019-02-22T09:13:25.018Z,1.85
2019-02-22T09:15:55.752Z,1.42
2019-02-22T09:18:26.524Z,1.77
2019-02-22T09:20:57.159Z,1.50
2019-02-22T09:25:57.660Z,1.77
2019-02-22T09:28:28.311Z,0.78
2019-02-22T09:30:59.048Z,1.40
2019-02-22T09:33:29.924Z,1.42
2019-02-22T09:36:00.574Z,2.15
2019-02-22T09:41:00.940Z,1.40
2019-02-22T09:46:01.423Z,1.85
2019-02-22T09:51:02.131Z,1.67
2019-02-22T09:53:32.890Z,2.15
2019-02-22T09:56:04.540Z,2.10
2019-02-22T09:58:35.396Z,2.25
2019-02-22T10:01:06.066Z,2.55
2019-02-22T10:03:36.803Z,2.95
2019-02-22T10:06:07.577Z,2.98
2019-02-22T10:08:38.208Z,3.05
2019-02-22T10:13:38.710Z,2.63
2019-02-22T10:16:09.364Z,3.10
2019-02-22T10:21:09.953Z,2.40
2019-02-22T10:26:10.415Z,2.47
2019-02-22T10:31:10.910Z,1.77
2019-02-22T10:36:11.609Z,1.77
2019-02-22T10:38:42.362Z,1.87
2019-02-22T10:41:12.998Z,2.55
2019-02-22T10:46:13.602Z,2.37
2019-02-22T10:51:14.149Z,1.90
2019-02-22T10:53:44.927Z,1.75
2019-02-22T10:56:16.514Z,1.60
2019-02-22T10:58:47.031Z,1.60
2019-02-22T11:01:17.592Z,2.00
2019-02-22T11:03:48.468Z,1.50
2019-02-22T11:06:19.206Z,2.65
2019-02-22T11:08:49.958Z,1.95
2019-02-22T11:11:20.626Z,2.42
2019-02-22T11:16:21.094Z,2.05
2019-02-22T11:18:51.850Z,3.20
2019-02-22T11:23:52.143Z,2.17
2019-02-22T11:26:22.782Z,1.80
2019-02-22T11:31:23.368Z,2.17
2019-02-22T11:33:53.917Z,2.27
2019-02-22T11:36:24.672Z,1.85
2019-02-22T11:38:55.545Z,2.70
2019-02-22T11:41:26.300Z,2.58
2019-02-22T11:43:56.947Z,2.58
2019-02-22T11:46:27.808Z,1.98
2019-02-22T11:48:58.438Z,2.70
2019-02-22T11:51:29.209Z,2.70
2019-02-22T11:53:59.842Z,2.42
2019-02-22T11:56:31.638Z,2.45
2019-02-22T11:59:02.800Z,1.85
2019-02-22T12:01:33.434Z,2.05
2019-02-22T12:04:04.206Z,2.72
2019-02-22T12:06:34.857Z,2.52
2019-02-22T12:09:05.699Z,1.80
2019-02-22T12:11:36.348Z,1.80
2019-02-22T12:14:07.124Z,1.52
2019-02-22T12:16:37.770Z,1.52
2019-02-22T12:19:08.628Z,2.08
2019-02-22T12:21:39.277Z,1.70
2019-02-22T12:24:10.032Z,2.00
2019-02-22T12:26:40.689Z,1.90
2019-02-22T12:29:11.543Z,1.90
2019-02-22T12:31:42.178Z,1.80
2019-02-22T12:34:12.930Z,1.90
2019-02-22T12:36:43.598Z,3.12
2019-02-22T12:39:14.444Z,2.30
2019-02-22T12:41:45.087Z,1.85
2019-02-22T12:44:15.841Z,1.80
2019-02-22T12:46:46.509Z,1.75
2019-02-22T12:49:17.347Z,1.62
2019-02-22T12:51:48.119Z,1.60
2019-02-22T12:54:18.861Z,1.70
2019-02-22T12:56:57.578Z,2.27
2019-02-22T12:59:23.141Z,2.22
2019-02-22T13:01:53.999Z,2.15
2019-02-22T13:04:24.751Z,2.00
2019-02-22T13:06:55.405Z,2.20
2019-02-22T13:09:36.434Z,2.15
2019-02-22T13:11:58.343Z,2.33
2019-02-22T13:14:29.099Z,2.17
2019-02-22T13:16:59.730Z,2.15
2019-02-22T13:19:30.605Z,2.55
2019-02-22T13:22:01.462Z,1.85
2019-02-22T13:24:32.198Z,2.83
2019-02-22T13:27:02.749Z,3.05
2019-02-22T13:29:33.604Z,3.02
2019-02-22T13:32:04.254Z,2.10
2019-02-22T13:34:35.010Z,2.77
2019-02-22T13:37:05.558Z,2.10
2019-02-22T13:42:06.160Z,2.12
2019-02-22T13:44:36.692Z,2.55
2019-02-22T13:47:07.572Z,2.35
2019-02-22T13:49:38.302Z,2.08
2019-02-22T13:52:09.058Z,2.35
2019-02-22T13:54:39.607Z,2.92
2019-02-22T13:57:11.283Z,3.22
2019-02-22T13:59:41.849Z,2.60
2019-02-22T14:02:12.585Z,3.50
2019-02-22T14:04:43.347Z,2.77
2019-02-22T14:07:14.109Z,2.47
2019-02-22T14:09:44.742Z,2.45
2019-02-22T14:12:15.599Z,2.35
2019-02-22T14:14:46.370Z,2.60
2019-02-22T14:17:17.106Z,3.05
2019-02-22T14:19:47.654Z,3.20
2019-02-22T14:24:48.244Z,2.65
2019-02-22T14:27:18.894Z,2.70
2019-02-22T14:29:49.752Z,2.65
2019-02-22T14:32:20.400Z,2.80
2019-02-22T14:34:51.172Z,2.75
2019-02-22T14:37:21.886Z,2.52
2019-02-22T14:40:02.369Z,3.20
2019-02-22T14:42:25.276Z,2.90
2019-02-22T14:44:55.909Z,2.10
2019-02-22T14:47:26.664Z,1.90
2019-02-22T14:49:57.540Z,2.40
2019-02-22T14:52:28.171Z,2.17
2019-02-22T14:54:58.842Z,2.10
2019-02-22T14:57:30.614Z,2.77
2019-02-22T15:00:01.560Z,1.75
2019-02-22T15:02:32.207Z,2.17
2019-02-22T15:05:02.980Z,1.42
2019-02-22T15:07:33.618Z,1.50
2019-02-22T15:10:06.054Z,2.08
2019-02-22T15:12:36.469Z,1.82
2019-02-22T15:15:17.658Z,2.45
2019-02-22T15:17:49.618Z,2.95
2019-02-22T15:20:20.372Z,2.10
2019-02-22T15:22:51.023Z,2.35
2019-02-22T15:25:21.676Z,2.58
2019-02-22T15:27:52.427Z,2.10
2019-02-22T15:30:23.417Z,2.60
2019-02-22T15:32:54.163Z,2.60
2019-02-22T15:35:25.014Z,2.40
2019-02-22T15:37:55.751Z,1.82
2019-02-22T15:40:26.503Z,2.12
2019-02-22T15:42:57.185Z,2.92
2019-02-22T15:45:28.034Z,2.35
2019-02-22T15:47:58.801Z,2.85
2019-02-22T15:50:29.520Z,3.12
2019-02-22T15:53:00.187Z,4.12
2019-02-22T15:55:31.027Z,5.20
2019-02-22T15:58:02.717Z,3.22
2019-02-22T16:00:35.082Z,4.05
2019-02-22T16:03:05.437Z,4.30
2019-02-22T16:05:37.748Z,3.72
2019-02-22T16:08:08.375Z,4.28
2019-02-22T16:10:39.173Z,5.15
2019-02-22T16:13:09.903Z,5.37
2019-02-22T16:15:40.866Z,3.87
2019-02-22T16:18:11.511Z,4.08
2019-02-22T16:20:42.366Z,3.52
2019-02-22T16:23:13.001Z,2.02
2019-02-22T16:25:43.669Z,0.90
2019-02-22T16:28:15.844Z,1.67
2019-02-22T16:30:46.388Z,1.30
2019-02-22T16:33:17.142Z,2.55
2019-02-22T16:35:49.025Z,2.65
2019-02-22T16:38:19.797Z,2.45
2019-02-22T16:40:50.544Z,2.25
2019-02-22T16:43:21.401Z,2.22
2019-02-22T16:45:52.258Z,1.95
2019-02-22T16:48:22.897Z,2.20
2019-02-22T16:50:53.545Z,2.65
2019-02-22T16:53:24.298Z,3.08
2019-02-22T16:55:55.170Z,2.42
2019-02-22T16:58:27.545Z,1.75
2019-02-22T17:00:58.521Z,1.40
2019-02-22T17:03:29.153Z,2.85
2019-02-22T17:05:59.930Z,1.42
2019-02-22T17:08:30.575Z,2.22
2019-02-22T17:13:31.063Z,2.90
2019-02-22T17:16:01.802Z,3.42
2019-02-22T17:18:32.350Z,2.92
2019-02-22T17:21:03.206Z,2.47
2019-02-22T17:23:33.973Z,2.27
2019-02-22T17:26:05.295Z,1.87
2019-02-22T17:28:35.976Z,1.55
2019-02-22T17:31:06.729Z,1.77
2019-02-22T17:33:37.501Z,1.87
2019-02-22T17:36:08.339Z,1.87
2019-02-22T17:38:39.092Z,2.50
2019-02-22T17:41:09.845Z,1.90
2019-02-22T17:43:40.396Z,2.55
2019-02-22T17:48:42.311Z,1.57
2019-02-22T17:51:13.085Z,2.17
2019-02-22T17:53:43.940Z,2.00
2019-02-22T17:56:14.797Z,1.50
2019-02-22T17:58:46.470Z,1.57
2019-02-22T18:01:17.326Z,1.77
2019-02-22T18:03:47.964Z,1.50
2019-02-22T18:06:18.849Z,1.80
2019-02-22T18:08:49.484Z,1.40
2019-02-22T18:11:20.240Z,1.60
2019-02-22T18:13:50.888Z,1.52
2019-02-22T18:16:21.747Z,1.35
2019-02-22T18:18:52.480Z,1.62
2019-02-22T18:21:23.252Z,2.17
2019-02-22T18:23:53.905Z,2.00
2019-02-22T18:26:26.296Z,2.17
2019-02-22T18:28:56.928Z,2.37
2019-02-22T18:31:27.702Z,1.77
2019-02-22T18:33:58.353Z,1.45
2019-02-22T18:36:29.195Z,2.02
2019-02-22T18:38:59.962Z,1.87
2019-02-22T18:41:30.718Z,1.92
2019-02-22T18:44:01.368Z,2.10
2019-02-22T18:46:32.207Z,1.70
2019-02-22T18:49:02.857Z,2.17
2019-02-22T18:51:33.630Z,1.50
2019-02-22T18:54:16.127Z,1.65
2019-02-22T18:59:35.855Z,2.05
2019-02-22T19:02:06.900Z,1.55
2019-02-22T19:04:37.670Z,2.40
2019-02-22T19:07:08.323Z,2.55
2019-02-22T19:09:39.161Z,1.85
2019-02-22T19:12:09.814Z,2.10
2019-02-22T19:14:40.568Z,1.62
2019-02-22T19:17:11.319Z,1.62
2019-02-22T19:19:42.200Z,1.92
2019-02-22T19:22:12.828Z,1.60
2019-02-22T19:24:43.600Z,1.92
2019-02-22T19:27:14.130Z,2.15
2019-02-22T19:29:44.991Z,3.52
2019-02-22T19:32:15.643Z,1.80
2019-02-22T19:34:46.392Z,1.67
2019-02-22T19:37:16.754Z,2.00
2019-02-22T19:39:47.525Z,1.67
2019-02-22T19:42:18.158Z,2.05
2019-02-22T19:44:50.548Z,3.05
2019-02-22T19:47:22.848Z,2.62
2019-02-22T19:49:53.369Z,2.77
2019-02-22T19:52:24.240Z,2.62
2019-02-22T19:54:54.997Z,2.02
2019-02-22T19:57:25.630Z,2.25
2019-02-22T20:02:27.035Z,3.30
2019-02-22T20:04:57.807Z,2.72
2019-02-22T20:07:28.474Z,3.35
2019-02-22T20:12:29.296Z,3.08
2019-02-22T20:15:00.005Z,2.67
2019-02-22T20:17:30.758Z,3.22
2019-02-22T20:20:01.515Z,3.02
2019-02-22T20:22:32.672Z,2.50
2019-02-22T20:25:05.903Z,2.95
2019-02-22T20:27:36.227Z,3.55
2019-02-22T20:30:10.134Z,4.00
2019-02-22T20:32:40.580Z,3.75
2019-02-22T20:35:13.801Z,2.35
2019-02-22T20:37:51.953Z,2.37
2019-02-22T20:40:16.218Z,3.58
2019-02-22T20:42:47.143Z,2.47
2019-02-22T20:45:17.948Z,4.55
2019-02-22T20:47:50.162Z,3.30
2019-02-22T20:50:21.013Z,3.30
2019-02-22T20:52:52.424Z,3.20
2019-02-22T20:55:24.062Z,2.00
2019-02-22T20:57:55.074Z,2.58
2019-02-22T21:00:30.380Z,2.90
2019-02-22T21:03:00.895Z,2.60
2019-02-22T21:05:31.633Z,2.87
2019-02-22T21:08:02.178Z,2.85
2019-02-22T21:10:33.052Z,2.80
2019-02-22T21:13:03.891Z,2.70
2019-02-22T21:15:34.337Z,2.55
2019-02-22T21:18:15.634Z,2.98
2019-02-22T21:20:37.192Z,2.17
2019-02-22T21:23:07.982Z,3.02
2019-02-22T21:25:38.393Z,2.83
2019-02-22T21:28:09.031Z,3.15
2019-02-22T21:30:39.800Z,3.33
2019-02-22T21:33:10.449Z,2.27
2019-02-22T21:35:41.311Z,2.83
2019-02-22T21:38:11.956Z,2.67
2019-02-22T21:40:42.713Z,1.80
2019-02-22T21:43:13.242Z,1.72
2019-02-22T21:45:44.116Z,2.75
2019-02-22T21:48:14.973Z,3.65
2019-02-22T21:50:45.709Z,2.77
2019-02-22T21:53:16.378Z,3.55
2019-02-22T21:55:47.218Z,3.20
2019-02-22T21:58:17.866Z,3.60
2019-02-22T22:00:49.541Z,3.90
2019-02-22T22:03:20.416Z,3.15
2019-02-22T22:05:51.049Z,2.90
2019-02-22T22:08:21.923Z,2.85
2019-02-22T22:10:52.780Z,2.72
2019-02-22T22:13:23.534Z,3.70
2019-02-22T22:15:54.168Z,3.70
2019-02-22T22:18:24.936Z,3.92
2019-02-22T22:20:55.675Z,3.57
2019-02-22T22:23:26.445Z,3.22
2019-02-22T22:25:57.097Z,3.58
2019-02-22T22:28:27.835Z,3.72
2019-02-22T22:30:58.612Z,3.25
2019-02-22T22:33:29.242Z,4.28
2019-02-22T22:35:59.909Z,3.77
2019-02-22T22:38:30.766Z,3.58
2019-02-22T22:41:01.608Z,4.25
2019-02-22T22:43:32.374Z,3.77
2019-02-22T22:46:03.028Z,4.00
2019-02-22T22:48:33.761Z,3.62
2019-02-22T22:51:04.634Z,3.92
2019-02-22T22:53:35.272Z,4.72
2019-02-22T22:56:05.937Z,3.95
2019-02-22T22:58:36.674Z,4.45
2019-02-22T23:01:09.933Z,3.98
2019-02-22T23:03:40.450Z,4.35
2019-02-22T23:06:11.305Z,3.87
2019-02-22T23:08:41.939Z,3.80
2019-02-22T23:11:12.608Z,4.28
2019-02-22T23:13:43.465Z,3.83
2019-02-22T23:16:14.204Z,4.35
2019-02-22T23:18:44.854Z,4.70
2019-02-22T23:21:15.520Z,5.05
2019-02-22T23:23:46.379Z,4.28
2019-02-22T23:26:17.130Z,4.17
2019-02-22T23:28:47.887Z,4.25
2019-02-22T23:31:18.537Z,4.33
2019-02-22T23:33:49.392Z,4.55
2019-02-22T23:36:20.129Z,5.08
2019-02-22T23:38:50.797Z,3.65
2019-02-22T23:43:51.387Z,4.33
2019-02-22T23:46:22.035Z,3.67
2019-02-22T23:48:52.890Z,4.65
2019-02-22T23:51:23.752Z,5.35
2019-02-22T23:53:54.503Z,5.45
2019-02-22T23:56:25.052Z,5.70
2019-02-22T23:58:55.907Z,4.78
